createdAt,value
2022-08-22T00:00:15.508Z,2.92
2022-08-22T00:01:02.393Z,2.95
2022-08-22T00:01:42.396Z,3.30
2022-08-22T00:02:23.638Z,3.35
2022-08-22T00:02:41.797Z,3.10
2022-08-22T00:02:55.135Z,2.92
2022-08-22T00:02:59.073Z,3.45
2022-08-22T00:03:03.864Z,2.73
2022-08-22T00:03:09.333Z,2.30
2022-08-22T00:04:24.607Z,2.87
2022-08-22T00:04:58.846Z,3.63
2022-08-22T00:06:02.577Z,3.50
2022-08-22T00:06:58.169Z,3.33
2022-08-22T00:07:48.439Z,3.22
2022-08-22T00:09:05.410Z,3.80
2022-08-22T00:10:01.345Z,2.85
2022-08-22T00:11:00.967Z,3.35
2022-08-22T00:11:40.329Z,3.40
2022-08-22T00:12:29.557Z,3.10
2022-08-22T00:13:07.723Z,3.43
2022-08-22T00:13:43.292Z,3.72
2022-08-22T00:14:32.360Z,3.58
2022-08-22T00:15:07.629Z,3.30
2022-08-22T00:15:57.098Z,2.95
2022-08-22T00:16:38.396Z,3.50
2022-08-22T00:17:22.127Z,3.10
2022-08-22T00:18:28.516Z,2.90
2022-08-22T00:19:31.897Z,3.35
2022-08-22T00:20:13.476Z,2.85
2022-08-22T00:21:08.671Z,3.37
2022-08-22T00:22:04.821Z,3.30
2022-08-22T00:22:54.659Z,3.00
2022-08-22T00:23:53.514Z,3.33
2022-08-22T00:24:35.171Z,2.92
2022-08-22T00:25:25.681Z,3.50
2022-08-22T00:26:17.749Z,3.55
2022-08-22T00:27:05.923Z,3.35
2022-08-22T00:27:51.992Z,3.15
2022-08-22T00:28:49.379Z,3.20
2022-08-22T00:29:53.646Z,3.23
2022-08-22T00:30:26.557Z,3.42
2022-08-22T00:31:14.417Z,3.13
2022-08-22T00:31:51.225Z,2.70
2022-08-22T00:32:48.421Z,3.20
2022-08-22T00:33:34.686Z,2.95
2022-08-22T00:34:15.718Z,3.28
2022-08-22T00:35:02.522Z,3.05
2022-08-22T00:35:44.520Z,3.28
2022-08-22T00:36:25.988Z,3.15
2022-08-22T00:37:19.199Z,3.30
2022-08-22T00:38:01.190Z,2.70
2022-08-22T00:38:38.497Z,3.10
2022-08-22T00:39:18.954Z,3.08
2022-08-22T00:40:03.156Z,2.75
2022-08-22T00:41:03.633Z,2.83
2022-08-22T00:41:49.466Z,2.72
2022-08-22T00:42:31.386Z,2.67
2022-08-22T00:43:09.941Z,2.85
2022-08-22T00:43:59.918Z,3.08
2022-08-22T00:45:00.730Z,2.80
2022-08-22T00:45:59.459Z,2.85
2022-08-22T00:47:02.895Z,3.10
2022-08-22T00:48:05.597Z,2.95
2022-08-22T00:49:07.901Z,2.75
2022-08-22T00:49:59.677Z,3.30
2022-08-22T00:50:59.858Z,3.28
2022-08-22T00:52:09.188Z,2.70
2022-08-22T00:52:59.603Z,3.00
2022-08-22T00:53:31.145Z,2.90
2022-08-22T00:54:22.931Z,3.10
2022-08-22T00:55:03.373Z,2.70
2022-08-22T00:56:11.605Z,3.33
2022-08-22T00:56:46.785Z,2.85
2022-08-22T00:57:35.751Z,3.00
2022-08-22T00:58:25.662Z,3.15
2022-08-22T00:59:23.611Z,2.90
2022-08-22T01:00:01.891Z,2.97
2022-08-22T01:00:42.619Z,3.10
2022-08-22T01:01:20.768Z,2.80
2022-08-22T01:02:11.093Z,2.77
2022-08-22T01:03:21.139Z,2.60
2022-08-22T01:04:23.841Z,2.97
2022-08-22T01:05:22.593Z,2.80
2022-08-22T01:06:22.925Z,3.13
2022-08-22T01:06:57.297Z,2.75
2022-08-22T01:08:00.201Z,3.00
2022-08-22T01:08:55.955Z,2.80
2022-08-22T01:10:15.509Z,3.30
2022-08-22T01:10:57.845Z,3.22
2022-08-22T01:11:44.665Z,3.17
2022-08-22T01:12:54.617Z,2.88
2022-08-22T01:13:53.974Z,3.10
2022-08-22T01:14:47.695Z,2.88
2022-08-22T01:15:27.168Z,3.08
2022-08-22T01:16:21.843Z,3.35
2022-08-22T01:17:00.769Z,3.60
2022-08-22T01:17:50.557Z,3.28
2022-08-22T01:18:45.681Z,3.45
2022-08-22T01:19:38.497Z,2.80
2022-08-22T01:20:29.435Z,3.40
2022-08-22T01:21:27.277Z,3.45
2022-08-22T01:22:07.861Z,3.60
2022-08-22T01:22:59.485Z,3.35
2022-08-22T01:23:52.497Z,3.80
2022-08-22T01:25:01.857Z,3.30
2022-08-22T01:26:22.393Z,3.30
2022-08-22T01:26:56.592Z,3.40
2022-08-22T01:28:14.076Z,3.33
2022-08-22T01:29:28.426Z,3.30
2022-08-22T01:30:11.909Z,2.87
2022-08-22T01:31:05.832Z,3.08
2022-08-22T01:31:57.609Z,3.40
2022-08-22T01:32:44.636Z,3.08
2022-08-22T01:33:34.311Z,3.10
2022-08-22T01:34:12.921Z,3.30
2022-08-22T01:34:50.543Z,3.45
2022-08-22T01:36:15.876Z,3.50
2022-08-22T01:37:01.646Z,3.22
2022-08-22T01:37:36.081Z,3.15
2022-08-22T01:38:36.987Z,3.17
2022-08-22T01:39:08.543Z,3.30
2022-08-22T01:39:48.843Z,3.22
2022-08-22T01:40:20.430Z,3.33
2022-08-22T01:40:53.813Z,3.30
2022-08-22T01:41:46.875Z,3.67
2022-08-22T01:42:34.737Z,3.15
2022-08-22T01:43:51.436Z,3.05
2022-08-22T01:44:52.513Z,3.42
2022-08-22T01:45:56.869Z,2.80
2022-08-22T01:46:53.941Z,3.47
2022-08-22T01:47:39.313Z,3.45
2022-08-22T01:48:19.782Z,3.35
2022-08-22T01:49:00.135Z,3.50
2022-08-22T01:49:34.249Z,3.28
2022-08-22T01:50:24.636Z,2.97
2022-08-22T01:51:09.787Z,3.47
2022-08-22T01:52:00.079Z,3.42
2022-08-22T01:52:47.577Z,3.55
2022-08-22T01:53:28.377Z,3.45
2022-08-22T01:54:33.265Z,3.17
2022-08-22T01:55:23.057Z,2.95
2022-08-22T01:56:10.368Z,3.33
2022-08-22T01:56:44.758Z,3.58
2022-08-22T01:57:17.597Z,3.60
2022-08-22T01:57:53.234Z,3.25
2022-08-22T01:58:28.373Z,3.63
2022-08-22T01:59:10.073Z,3.63
2022-08-22T01:59:47.185Z,3.88
2022-08-22T02:00:35.450Z,2.97
2022-08-22T02:01:51.049Z,3.47
2022-08-22T02:02:50.525Z,3.50
2022-08-22T02:03:31.754Z,2.80
2022-08-22T02:04:11.133Z,3.30
2022-08-22T02:04:58.221Z,3.30
2022-08-22T02:05:47.037Z,3.33
2022-08-22T02:06:40.480Z,3.63
2022-08-22T02:07:20.093Z,3.60
2022-08-22T02:08:12.897Z,3.38
2022-08-22T02:08:54.093Z,3.63
2022-08-22T02:09:47.484Z,2.97
2022-08-22T02:10:57.195Z,3.35
2022-08-22T02:11:54.114Z,3.10
2022-08-22T02:12:55.505Z,3.60
2022-08-22T02:14:04.741Z,3.15
2022-08-22T02:14:44.065Z,3.28
2022-08-22T02:15:24.371Z,3.65
2022-08-22T02:16:11.827Z,3.60
2022-08-22T02:16:48.149Z,3.20
2022-08-22T02:17:35.678Z,3.80
2022-08-22T02:18:07.243Z,3.10
2022-08-22T02:18:52.689Z,3.42
2022-08-22T02:19:35.169Z,3.70
2022-08-22T02:20:31.370Z,3.47
2022-08-22T02:21:23.105Z,3.72
2022-08-22T02:22:06.763Z,3.35
2022-08-22T02:22:56.890Z,3.20
2022-08-22T02:23:33.153Z,3.25
2022-08-22T02:24:35.732Z,3.03
2022-08-22T02:25:11.111Z,3.87
2022-08-22T02:25:54.823Z,3.60
2022-08-22T02:27:03.440Z,3.10
2022-08-22T02:28:14.696Z,3.75
2022-08-22T02:29:22.761Z,3.10
2022-08-22T02:30:14.954Z,3.72
2022-08-22T02:30:55.068Z,2.92
2022-08-22T02:31:29.361Z,3.13
2022-08-22T02:32:15.436Z,3.45
2022-08-22T02:33:10.928Z,2.90
2022-08-22T02:33:49.163Z,3.50
2022-08-22T02:34:38.622Z,3.05
2022-08-22T02:35:14.332Z,2.92
2022-08-22T02:35:59.458Z,3.08
2022-08-22T02:36:43.766Z,3.30
2022-08-22T02:37:23.113Z,3.20
2022-08-22T02:38:20.189Z,3.05
2022-08-22T02:39:08.890Z,2.70
2022-08-22T02:40:01.663Z,3.20
2022-08-22T02:41:04.875Z,3.17
2022-08-22T02:41:57.657Z,3.10
2022-08-22T02:42:40.337Z,3.22
2022-08-22T02:43:26.113Z,3.53
2022-08-22T02:44:03.667Z,3.65
2022-08-22T02:45:26.302Z,2.97
2022-08-22T02:46:18.565Z,2.70
2022-08-22T02:46:59.097Z,3.33
2022-08-22T02:47:42.011Z,3.47
2022-08-22T02:48:35.371Z,3.63
2022-08-22T02:49:27.402Z,3.42
2022-08-22T02:50:43.665Z,3.70
2022-08-22T02:51:36.181Z,3.60
2022-08-22T02:52:17.604Z,3.45
2022-08-22T02:53:05.497Z,3.33
2022-08-22T02:53:48.528Z,3.38
2022-08-22T02:54:42.225Z,3.17
2022-08-22T02:55:21.299Z,3.28
2022-08-22T02:56:06.262Z,3.13
2022-08-22T02:56:53.473Z,3.58
2022-08-22T02:58:02.703Z,3.10
2022-08-22T02:58:46.465Z,3.63
2022-08-22T02:59:31.987Z,3.88
2022-08-22T03:00:24.987Z,3.58
2022-08-22T03:01:33.601Z,3.92
2022-08-22T03:02:56.964Z,3.20
2022-08-22T03:03:31.735Z,3.47
2022-08-22T03:04:32.549Z,3.17
2022-08-22T03:05:28.661Z,3.65
2022-08-22T03:07:14.822Z,3.17
2022-08-22T03:08:02.326Z,3.90
2022-08-22T03:08:47.570Z,3.28
2022-08-22T03:09:29.852Z,3.83
2022-08-22T03:10:20.077Z,4.10
2022-08-22T03:11:29.596Z,4.10
2022-08-22T03:12:07.131Z,4.00
2022-08-22T03:12:51.329Z,4.47
2022-08-22T03:13:39.918Z,3.92
2022-08-22T03:14:23.672Z,3.85
2022-08-22T03:15:00.289Z,3.72
2022-08-22T03:15:55.183Z,3.57
2022-08-22T03:16:40.604Z,3.90
2022-08-22T03:17:28.775Z,3.97
2022-08-22T03:18:04.102Z,4.03
2022-08-22T03:18:52.967Z,4.25
2022-08-22T03:19:34.042Z,3.65
2022-08-22T03:20:06.465Z,3.75
2022-08-22T03:20:45.157Z,4.10
2022-08-22T03:21:41.074Z,4.10
2022-08-22T03:22:37.577Z,4.45
2022-08-22T03:23:14.379Z,4.00
2022-08-22T03:24:01.835Z,3.78
2022-08-22T03:24:42.390Z,3.83
2022-08-22T03:25:13.993Z,4.30
2022-08-22T03:25:45.953Z,4.40
2022-08-22T03:26:26.126Z,3.97
2022-08-22T03:26:57.692Z,4.22
2022-08-22T03:27:49.474Z,4.63
2022-08-22T03:28:32.475Z,4.43
2022-08-22T03:29:08.897Z,4.10
2022-08-22T03:29:48.021Z,4.10
2022-08-22T03:30:23.425Z,4.10
2022-08-22T03:31:25.522Z,4.80
2022-08-22T03:32:07.943Z,4.70
2022-08-22T03:32:52.117Z,3.97
2022-08-22T03:33:30.467Z,3.88
2022-08-22T03:34:21.400Z,4.20
2022-08-22T03:35:08.777Z,4.40
2022-08-22T03:35:45.983Z,4.90
2022-08-22T03:36:17.635Z,4.05
2022-08-22T03:37:04.722Z,4.30
2022-08-22T03:37:43.629Z,4.38
2022-08-22T03:38:41.262Z,4.43
2022-08-22T03:39:35.494Z,4.82
2022-08-22T03:40:13.174Z,4.30
2022-08-22T03:40:56.889Z,4.65
2022-08-22T03:41:43.477Z,4.38
2022-08-22T03:42:39.990Z,4.75
2022-08-22T03:43:45.532Z,4.80
2022-08-22T03:44:54.637Z,4.70
2022-08-22T03:45:54.367Z,4.83
2022-08-22T03:46:41.303Z,4.68
2022-08-22T03:47:18.630Z,4.88
2022-08-22T03:48:20.420Z,5.60
2022-08-22T03:49:19.426Z,5.28
2022-08-22T03:50:14.123Z,5.20
2022-08-22T03:50:51.387Z,5.13
2022-08-22T03:51:38.328Z,5.25
2022-08-22T03:53:06.110Z,5.45
2022-08-22T03:54:07.495Z,5.03
2022-08-22T03:54:54.171Z,5.67
2022-08-22T03:55:32.736Z,5.10
2022-08-22T03:56:26.223Z,5.32
2022-08-22T03:57:13.006Z,6.10
2022-08-22T03:58:31.178Z,4.82
2022-08-22T03:59:14.967Z,5.28
2022-08-22T03:59:55.481Z,5.35
2022-08-22T04:01:21.910Z,5.25
2022-08-22T04:02:43.167Z,5.32
2022-08-22T04:03:34.790Z,5.07
2022-08-22T04:04:31.696Z,5.30
2022-08-22T04:05:23.654Z,5.57
2022-08-22T04:06:27.325Z,6.03
2022-08-22T04:07:28.379Z,6.20
2022-08-22T04:08:29.940Z,6.35
2022-08-22T04:09:29.189Z,6.35
2022-08-22T04:10:29.458Z,6.20
2022-08-22T04:11:07.699Z,6.35
2022-08-22T04:12:08.759Z,6.40
2022-08-22T04:12:46.012Z,6.30
2022-08-22T04:13:29.492Z,6.13
2022-08-22T04:14:15.984Z,5.95
2022-08-22T04:15:16.658Z,6.70
2022-08-22T04:16:13.074Z,6.53
2022-08-22T04:17:09.332Z,6.30
2022-08-22T04:18:18.513Z,6.43
2022-08-22T04:19:20.652Z,6.55
2022-08-22T04:20:21.183Z,6.95
2022-08-22T04:21:14.138Z,6.45
2022-08-22T04:22:13.248Z,6.65
2022-08-22T04:23:14.322Z,6.67
2022-08-22T04:24:02.324Z,6.55
2022-08-22T04:24:43.072Z,7.10
2022-08-22T04:25:40.672Z,7.63
2022-08-22T04:26:17.240Z,7.25
2022-08-22T04:27:20.624Z,7.07
2022-08-22T04:28:11.048Z,7.53
2022-08-22T04:28:52.540Z,7.82
2022-08-22T04:29:42.630Z,7.50
2022-08-22T04:30:26.054Z,7.22
2022-08-22T04:31:22.394Z,7.90
2022-08-22T04:32:06.955Z,7.63
2022-08-22T04:32:38.544Z,7.43
2022-08-22T04:33:26.600Z,8.10
2022-08-22T04:34:19.928Z,7.70
2022-08-22T04:35:22.305Z,8.07
2022-08-22T04:36:02.960Z,7.32
2022-08-22T04:36:43.711Z,7.80
2022-08-22T04:37:29.090Z,7.65
2022-08-22T04:38:15.587Z,7.20
2022-08-22T04:39:18.584Z,7.13
2022-08-22T04:40:34.461Z,7.32
2022-08-22T04:41:13.588Z,7.70
2022-08-22T04:42:06.960Z,8.30
2022-08-22T04:43:10.556Z,8.27
2022-08-22T04:43:42.175Z,7.50
2022-08-22T04:44:24.049Z,7.93
2022-08-22T04:45:29.683Z,7.65
2022-08-22T04:46:05.258Z,7.88
2022-08-22T04:47:04.781Z,7.93
2022-08-22T04:47:57.941Z,7.93
2022-08-22T04:48:39.090Z,7.93
2022-08-22T04:49:22.342Z,8.20
2022-08-22T04:50:15.998Z,8.15
2022-08-22T04:51:10.582Z,8.07
2022-08-22T04:51:49.863Z,8.23
2022-08-22T04:52:35.633Z,8.30
2022-08-22T04:53:49.747Z,8.55
2022-08-22T04:54:58.869Z,8.43
2022-08-22T04:55:42.297Z,8.07
2022-08-22T04:56:35.724Z,8.77
2022-08-22T04:57:32.196Z,8.95
2022-08-22T04:58:22.410Z,8.35
2022-08-22T04:59:12.490Z,8.60
2022-08-22T04:59:44.385Z,8.77
2022-08-22T05:00:16.941Z,8.88
2022-08-22T05:01:03.603Z,8.18
2022-08-22T05:01:44.695Z,8.35
2022-08-22T05:02:27.601Z,9.02
2022-08-22T05:03:02.881Z,8.15
2022-08-22T05:03:44.381Z,8.93
2022-08-22T05:04:23.965Z,9.10
2022-08-22T05:05:13.839Z,8.43
2022-08-22T05:05:48.342Z,9.07
2022-08-22T05:06:26.525Z,8.85
2022-08-22T05:07:11.051Z,8.77
2022-08-22T05:07:49.607Z,8.90
2022-08-22T05:08:25.795Z,8.73
2022-08-22T05:09:02.503Z,10.10
2022-08-22T05:09:38.094Z,9.93
2022-08-22T05:10:26.828Z,9.03
2022-08-22T05:10:59.349Z,9.07
2022-08-22T05:11:33.642Z,8.90
2022-08-22T05:12:12.050Z,9.27
2022-08-22T05:12:53.281Z,9.00
2022-08-22T05:13:32.603Z,9.23
2022-08-22T05:14:13.735Z,8.77
2022-08-22T05:14:58.585Z,9.52
2022-08-22T05:15:35.218Z,9.13
2022-08-22T05:16:14.673Z,8.82
2022-08-22T05:16:50.829Z,9.70
2022-08-22T05:17:25.810Z,8.95
2022-08-22T05:18:03.926Z,9.13
2022-08-22T05:18:43.894Z,8.98
2022-08-22T05:19:31.238Z,9.75
2022-08-22T05:20:10.861Z,9.05
2022-08-22T05:20:46.993Z,10.15
2022-08-22T05:21:27.001Z,9.32
2022-08-22T05:21:59.783Z,9.43
2022-08-22T05:22:36.171Z,8.77
2022-08-22T05:23:21.929Z,9.40
2022-08-22T05:24:10.834Z,9.38
2022-08-22T05:24:48.732Z,8.77
2022-08-22T05:25:28.099Z,9.27
2022-08-22T05:26:04.881Z,9.52
2022-08-22T05:26:41.005Z,9.52
2022-08-22T05:27:18.765Z,9.25
2022-08-22T05:27:56.320Z,9.60
2022-08-22T05:28:34.130Z,8.85
2022-08-22T05:29:09.107Z,8.85
2022-08-22T05:29:43.050Z,9.53
2022-08-22T05:30:22.269Z,9.57
2022-08-22T05:30:54.636Z,9.02
2022-08-22T05:31:38.862Z,9.23
2022-08-22T05:32:43.820Z,9.32
2022-08-22T05:33:30.313Z,9.18
2022-08-22T05:34:11.282Z,8.68
2022-08-22T05:34:45.366Z,9.20
2022-08-22T05:35:20.105Z,9.10
2022-08-22T05:36:00.994Z,9.27
2022-08-22T05:36:38.705Z,9.60
2022-08-22T05:37:25.021Z,8.75
2022-08-22T05:37:57.101Z,9.13
2022-08-22T05:38:34.499Z,9.20
2022-08-22T05:39:20.593Z,9.52
2022-08-22T05:39:57.297Z,8.13
2022-08-22T05:40:31.439Z,8.88
2022-08-22T05:41:08.662Z,9.27
2022-08-22T05:41:41.513Z,9.77
2022-08-22T05:42:18.648Z,9.23
2022-08-22T05:42:51.683Z,9.17
2022-08-22T05:43:25.638Z,9.70
2022-08-22T05:43:57.451Z,9.27
2022-08-22T05:44:34.899Z,9.32
2022-08-22T05:45:11.656Z,8.77
2022-08-22T05:45:47.358Z,8.93
2022-08-22T05:46:41.577Z,9.93
2022-08-22T05:47:23.418Z,8.60
2022-08-22T05:48:05.707Z,9.50
2022-08-22T05:48:45.561Z,8.65
2022-08-22T05:49:22.669Z,9.27
2022-08-22T05:50:06.432Z,8.45
2022-08-22T05:50:40.603Z,8.90
2022-08-22T05:51:21.673Z,9.13
2022-08-22T05:52:22.589Z,9.13
2022-08-22T05:53:03.203Z,8.90
2022-08-22T05:53:42.721Z,8.98
2022-08-22T05:54:33.497Z,8.15
2022-08-22T05:55:14.509Z,8.95
2022-08-22T05:56:01.887Z,8.07
2022-08-22T05:56:38.783Z,8.67
2022-08-22T05:57:31.874Z,8.43
2022-08-22T05:58:09.464Z,8.55
2022-08-22T05:59:13.264Z,8.10
2022-08-22T05:59:48.463Z,8.13
2022-08-22T06:00:23.328Z,8.05
2022-08-22T06:01:13.571Z,8.18
2022-08-22T06:02:03.571Z,8.73
2022-08-22T06:03:08.098Z,7.90
2022-08-22T06:04:01.438Z,8.13
2022-08-22T06:04:50.113Z,7.80
2022-08-22T06:05:27.596Z,8.15
2022-08-22T06:06:06.826Z,7.80
2022-08-22T06:06:54.969Z,8.43
2022-08-22T06:07:49.268Z,7.78
2022-08-22T06:08:30.621Z,7.40
2022-08-22T06:09:13.139Z,7.82
2022-08-22T06:10:13.874Z,8.05
2022-08-22T06:10:53.472Z,7.90
2022-08-22T06:11:51.659Z,7.47
2022-08-22T06:12:36.536Z,7.87
2022-08-22T06:13:26.284Z,8.32
2022-08-22T06:14:10.681Z,8.00
2022-08-22T06:14:47.669Z,7.97
2022-08-22T06:15:32.341Z,7.75
2022-08-22T06:16:16.960Z,8.10
2022-08-22T06:16:56.621Z,7.65
2022-08-22T06:17:34.678Z,8.00
2022-08-22T06:18:11.715Z,7.38
2022-08-22T06:18:44.642Z,7.38
2022-08-22T06:19:19.942Z,8.10
2022-08-22T06:19:53.498Z,8.23
2022-08-22T06:20:37.445Z,8.18
2022-08-22T06:21:19.977Z,8.80
2022-08-22T06:21:53.998Z,8.82
2022-08-22T06:22:29.410Z,7.97
2022-08-22T06:23:03.072Z,7.90
2022-08-22T06:23:57.499Z,8.15
2022-08-22T06:24:32.259Z,7.95
2022-08-22T06:25:13.158Z,7.82
2022-08-22T06:25:47.997Z,7.90
2022-08-22T06:26:20.800Z,8.60
2022-08-22T06:26:57.111Z,8.30
2022-08-22T06:27:31.273Z,8.30
2022-08-22T06:28:17.537Z,8.70
2022-08-22T06:28:55.315Z,8.50
2022-08-22T06:29:36.275Z,8.93
2022-08-22T06:30:12.567Z,8.02
2022-08-22T06:30:45.632Z,8.15
2022-08-22T06:31:26.081Z,8.10
2022-08-22T06:32:01.434Z,8.80
2022-08-22T06:33:00.154Z,8.48
2022-08-22T06:33:41.529Z,8.10
2022-08-22T06:34:23.658Z,8.00
2022-08-22T06:35:02.769Z,8.73
2022-08-22T06:36:01.888Z,7.78
2022-08-22T06:36:37.529Z,8.15
2022-08-22T06:37:16.856Z,8.00
2022-08-22T06:37:52.006Z,7.95
2022-08-22T06:38:32.413Z,8.90
2022-08-22T06:39:09.589Z,8.30
2022-08-22T06:39:45.593Z,8.45
2022-08-22T06:40:18.522Z,8.15
2022-08-22T06:40:54.350Z,8.35
2022-08-22T06:41:30.546Z,8.20
2022-08-22T06:42:16.327Z,8.15
2022-08-22T06:42:51.965Z,8.20
2022-08-22T06:43:24.938Z,7.97
2022-08-22T06:43:58.605Z,7.68
2022-08-22T06:44:36.368Z,8.15
2022-08-22T06:45:16.871Z,7.57
2022-08-22T06:45:49.672Z,8.00
2022-08-22T06:46:23.258Z,7.57
2022-08-22T06:46:58.678Z,8.02
2022-08-22T06:47:33.572Z,7.82
2022-08-22T06:48:05.582Z,7.35
2022-08-22T06:48:38.204Z,7.45
2022-08-22T06:49:10.044Z,7.22
2022-08-22T06:49:44.183Z,8.23
2022-08-22T06:50:23.249Z,7.78
2022-08-22T06:50:58.705Z,7.80
2022-08-22T06:51:30.918Z,7.53
2022-08-22T06:52:07.742Z,7.35
2022-08-22T06:52:56.444Z,7.72
2022-08-22T06:53:35.248Z,7.57
2022-08-22T06:54:16.249Z,8.13
2022-08-22T06:54:52.370Z,7.75
2022-08-22T06:55:26.560Z,7.43
2022-08-22T06:56:06.012Z,7.43
2022-08-22T06:56:42.585Z,7.15
2022-08-22T06:57:34.984Z,7.63
2022-08-22T06:58:14.952Z,7.30
2022-08-22T06:58:49.391Z,7.13
2022-08-22T06:59:26.628Z,8.00
2022-08-22T07:00:00.453Z,7.43
2022-08-22T07:00:34.682Z,7.40
2022-08-22T07:01:11.603Z,7.50
2022-08-22T07:01:50.511Z,7.28
2022-08-22T07:02:38.920Z,7.82
2022-08-22T07:03:27.647Z,7.35
2022-08-22T07:04:06.175Z,7.17
2022-08-22T07:04:38.229Z,7.85
2022-08-22T07:05:25.899Z,7.13
2022-08-22T07:05:57.844Z,7.13
2022-08-22T07:06:36.181Z,7.80
2022-08-22T07:07:07.986Z,7.95
2022-08-22T07:07:39.608Z,7.60
2022-08-22T07:08:14.974Z,7.55
2022-08-22T07:08:52.538Z,7.57
2022-08-22T07:09:35.565Z,8.30
2022-08-22T07:10:10.748Z,7.83
2022-08-22T07:10:45.313Z,7.15
2022-08-22T07:11:22.298Z,7.82
2022-08-22T07:12:00.946Z,7.60
2022-08-22T07:12:36.848Z,7.53
2022-08-22T07:13:15.185Z,7.22
2022-08-22T07:13:53.709Z,7.75
2022-08-22T07:14:44.469Z,7.85
2022-08-22T07:15:32.686Z,7.38
2022-08-22T07:16:07.321Z,6.82
2022-08-22T07:16:42.150Z,7.70
2022-08-22T07:17:32.457Z,7.10
2022-08-22T07:18:18.025Z,7.30
2022-08-22T07:18:50.186Z,6.70
2022-08-22T07:19:31.589Z,7.72
2022-08-22T07:20:10.853Z,7.18
2022-08-22T07:20:45.258Z,7.03
2022-08-22T07:21:32.550Z,8.75
2022-08-22T07:22:23.635Z,6.90
2022-08-22T07:23:05.982Z,6.60
2022-08-22T07:23:47.862Z,7.63
2022-08-22T07:24:24.806Z,7.75
2022-08-22T07:25:15.020Z,7.47
2022-08-22T07:26:01.395Z,7.15
2022-08-22T07:26:33.667Z,6.85
2022-08-22T07:27:26.424Z,6.30
2022-08-22T07:28:16.668Z,7.25
2022-08-22T07:28:57.856Z,6.80
2022-08-22T07:29:38.930Z,6.72
2022-08-22T07:30:14.054Z,7.45
2022-08-22T07:30:58.058Z,7.00
2022-08-22T07:31:41.953Z,7.40
2022-08-22T07:32:33.196Z,6.72
2022-08-22T07:33:30.801Z,6.80
2022-08-22T07:34:23.557Z,7.15
2022-08-22T07:35:15.770Z,7.25
2022-08-22T07:35:54.324Z,7.00
2022-08-22T07:36:32.022Z,7.13
2022-08-22T07:37:14.790Z,7.45
2022-08-22T07:37:52.753Z,7.03
2022-08-22T07:38:45.504Z,7.13
2022-08-22T07:39:35.450Z,6.68
2022-08-22T07:40:23.635Z,7.35
2022-08-22T07:41:20.199Z,6.75
2022-08-22T07:42:06.894Z,6.80
2022-08-22T07:43:00.295Z,6.68
2022-08-22T07:43:44.918Z,6.70
2022-08-22T07:44:21.592Z,6.38
2022-08-22T07:45:17.947Z,7.05
2022-08-22T07:46:01.008Z,6.93
2022-08-22T07:46:40.998Z,6.90
2022-08-22T07:47:18.121Z,7.55
2022-08-22T07:48:22.673Z,6.90
2022-08-22T07:49:09.507Z,7.32
2022-08-22T07:49:52.848Z,7.10
2022-08-22T07:50:29.955Z,6.95
2022-08-22T07:51:04.340Z,7.55
2022-08-22T07:51:46.761Z,6.70
2022-08-22T07:52:20.156Z,7.32
2022-08-22T07:52:53.638Z,7.20
2022-08-22T07:53:30.308Z,6.90
2022-08-22T07:54:09.140Z,7.60
2022-08-22T07:55:08.772Z,7.93
2022-08-22T07:55:49.692Z,7.10
2022-08-22T07:56:28.335Z,8.18
2022-08-22T07:57:08.188Z,6.75
2022-08-22T07:57:44.825Z,6.95
2022-08-22T07:58:18.118Z,7.45
2022-08-22T07:59:09.997Z,7.05
2022-08-22T07:59:52.062Z,7.05
2022-08-22T08:00:24.717Z,6.90
2022-08-22T08:00:57.016Z,7.15
2022-08-22T08:01:29.645Z,6.78
2022-08-22T08:02:05.270Z,7.15
2022-08-22T08:02:39.045Z,6.93
2022-08-22T08:03:12.248Z,7.38
2022-08-22T08:03:51.125Z,7.38
2022-08-22T08:04:40.032Z,7.25
2022-08-22T08:05:14.345Z,6.72
2022-08-22T08:05:46.046Z,6.82
2022-08-22T08:06:17.713Z,6.73
2022-08-22T08:06:52.818Z,7.30
2022-08-22T08:07:27.512Z,8.02
2022-08-22T08:08:07.297Z,7.97
2022-08-22T08:08:41.880Z,7.07
2022-08-22T08:09:17.252Z,6.88
2022-08-22T08:09:53.446Z,7.18
2022-08-22T08:10:34.822Z,8.13
2022-08-22T08:11:10.602Z,7.78
2022-08-22T08:11:44.933Z,7.45
2022-08-22T08:12:21.950Z,7.23
2022-08-22T08:13:02.305Z,7.10
2022-08-22T08:13:37.939Z,7.15
2022-08-22T08:14:13.754Z,8.00
2022-08-22T08:14:50.569Z,6.63
2022-08-22T08:15:23.805Z,7.15
2022-08-22T08:15:55.880Z,7.93
2022-08-22T08:16:31.854Z,8.13
2022-08-22T08:17:19.628Z,7.40
2022-08-22T08:17:56.441Z,6.90
2022-08-22T08:18:32.093Z,7.13
2022-08-22T08:19:03.825Z,7.45
2022-08-22T08:19:39.765Z,7.60
2022-08-22T08:20:17.777Z,7.53
2022-08-22T08:20:58.489Z,7.35
2022-08-22T08:21:36.123Z,6.78
2022-08-22T08:22:12.912Z,7.38
2022-08-22T08:22:45.721Z,7.88
2022-08-22T08:23:23.492Z,7.50
2022-08-22T08:23:56.203Z,7.38
2022-08-22T08:24:39.916Z,7.70
2022-08-22T08:25:20.325Z,7.55
2022-08-22T08:26:06.920Z,8.10
2022-08-22T08:27:03.061Z,7.65
2022-08-22T08:27:56.572Z,7.68
2022-08-22T08:28:34.900Z,7.95
2022-08-22T08:29:07.336Z,7.40
2022-08-22T08:29:43.200Z,7.40
2022-08-22T08:30:19.352Z,7.85
2022-08-22T08:30:59.477Z,7.90
2022-08-22T08:31:38.095Z,8.10
2022-08-22T08:32:15.501Z,8.38
2022-08-22T08:32:59.592Z,7.95
2022-08-22T08:33:48.681Z,8.68
2022-08-22T08:34:23.457Z,8.45
2022-08-22T08:34:55.304Z,7.38
2022-08-22T08:35:42.346Z,8.07
2022-08-22T08:36:33.370Z,8.18
2022-08-22T08:37:09.834Z,8.15
2022-08-22T08:37:49.367Z,8.48
2022-08-22T08:38:25.983Z,7.87
2022-08-22T08:39:12.462Z,8.45
2022-08-22T08:39:51.917Z,7.85
2022-08-22T08:40:55.073Z,8.10
2022-08-22T08:41:47.574Z,7.50
2022-08-22T08:42:28.213Z,7.53
2022-08-22T08:43:27.860Z,7.88
2022-08-22T08:44:22.649Z,7.72
2022-08-22T08:45:12.157Z,7.72
2022-08-22T08:46:07.044Z,7.47
2022-08-22T08:46:41.371Z,7.27
2022-08-22T08:47:46.028Z,7.35
2022-08-22T08:48:31.836Z,8.00
2022-08-22T08:49:24.178Z,8.10
2022-08-22T08:50:21.090Z,8.10
2022-08-22T08:51:37.893Z,8.40
2022-08-22T08:52:40.414Z,8.18
2022-08-22T08:53:43.325Z,7.90
2022-08-22T08:54:43.497Z,7.70
2022-08-22T08:55:51.783Z,7.10
2022-08-22T08:56:54.317Z,8.20
2022-08-22T08:57:39.987Z,7.97
2022-08-22T08:58:24.082Z,8.13
2022-08-22T08:59:15.062Z,8.32
2022-08-22T09:00:12.282Z,9.10
2022-08-22T09:00:51.236Z,8.02
2022-08-22T09:01:41.130Z,7.90
2022-08-22T09:02:23.708Z,7.82
2022-08-22T09:03:21.163Z,8.48
2022-08-22T09:04:14.966Z,8.35
2022-08-22T09:05:04.932Z,9.03
2022-08-22T09:05:49.125Z,8.10
2022-08-22T09:06:52.749Z,8.48
2022-08-22T09:07:52.389Z,8.30
2022-08-22T09:08:45.150Z,8.32
2022-08-22T09:09:19.766Z,8.05
2022-08-22T09:10:27.245Z,10.90
2022-08-22T09:11:42.669Z,7.45
2022-08-22T09:12:33.722Z,8.43
2022-08-22T09:13:34.494Z,7.18
2022-08-22T09:14:46.277Z,7.40
2022-08-22T09:15:38.931Z,7.95
2022-08-22T09:16:29.606Z,8.07
2022-08-22T09:17:04.946Z,8.38
2022-08-22T09:18:04.152Z,8.13
2022-08-22T09:19:14.216Z,7.03
2022-08-22T09:20:17.744Z,7.63
2022-08-22T09:21:31.271Z,7.95
2022-08-22T09:22:20.940Z,7.35
2022-08-22T09:23:20.153Z,7.72
2022-08-22T09:24:28.547Z,7.90
2022-08-22T09:25:38.642Z,7.70
2022-08-22T09:26:48.108Z,8.05
2022-08-22T09:27:24.423Z,7.90
2022-08-22T09:27:59.520Z,8.05
2022-08-22T09:28:38.718Z,8.90
2022-08-22T09:29:54.830Z,8.35
2022-08-22T09:30:43.479Z,8.60
2022-08-22T09:31:48.297Z,8.02
2022-08-22T09:33:01.008Z,7.75
2022-08-22T09:33:49.773Z,8.57
2022-08-22T09:34:32.548Z,7.50
2022-08-22T09:35:09.216Z,8.00
2022-08-22T09:36:03.031Z,7.90
2022-08-22T09:36:46.068Z,8.20
2022-08-22T09:37:41.397Z,7.70
2022-08-22T09:38:35.319Z,7.88
2022-08-22T09:39:44.773Z,7.75
2022-08-22T09:40:29.407Z,7.70
2022-08-22T09:41:13.083Z,7.45
2022-08-22T09:42:04.772Z,8.10
2022-08-22T09:43:02.924Z,7.35
2022-08-22T09:43:48.546Z,7.85
2022-08-22T09:44:39.622Z,7.80
2022-08-22T09:45:11.764Z,7.55
2022-08-22T09:45:47.204Z,7.05
2022-08-22T09:46:22.518Z,7.90
2022-08-22T09:47:03.583Z,8.05
2022-08-22T09:47:47.114Z,8.07
2022-08-22T09:48:28.910Z,7.18
2022-08-22T09:49:06.966Z,7.37
2022-08-22T09:49:44.825Z,7.35
2022-08-22T09:50:24.744Z,7.97
2022-08-22T09:51:31.284Z,7.50
2022-08-22T09:52:15.359Z,6.90
2022-08-22T09:53:17.430Z,6.90
2022-08-22T09:54:00.932Z,7.55
2022-08-22T09:54:38.521Z,6.95
2022-08-22T09:55:35.138Z,7.22
2022-08-22T09:56:36.617Z,6.63
2022-08-22T09:57:30.029Z,7.00
2022-08-22T09:58:42.610Z,7.30
2022-08-22T09:59:24.430Z,7.15
2022-08-22T10:00:09.946Z,7.10
2022-08-22T10:00:58.453Z,7.53
2022-08-22T10:01:56.131Z,7.40
2022-08-22T10:02:44.369Z,7.18
2022-08-22T10:03:33.173Z,7.28
2022-08-22T10:04:14.554Z,7.10
2022-08-22T10:05:40.494Z,8.10
2022-08-22T10:06:21.765Z,7.73
2022-08-22T10:07:07.429Z,7.50
2022-08-22T10:08:19.686Z,7.88
2022-08-22T10:09:11.383Z,8.50
2022-08-22T10:10:15.272Z,7.88
2022-08-22T10:11:20.089Z,8.23
2022-08-22T10:12:07.033Z,8.43
2022-08-22T10:13:10.471Z,8.73
2022-08-22T10:14:02.303Z,8.57
2022-08-22T10:15:00.415Z,7.88
2022-08-22T10:15:39.338Z,7.43
2022-08-22T10:16:52.984Z,8.75